Latest Weather Observations for Narrabri

IDN60801

Issued at 6:23 pm EST Saturday 9 May 2026 (issued every 10 minutes, with the page automatically refreshed every 10 minutes)

About weather observations | Map of weather stations | Latest weather observations for NSW | Other Formats
Station Details ID: 054038 Name: NARRABRI AIRPORT AWS Lat: -30.32 Lon: 149.83 Height: 229.02 m
Data from the previous 72 hours. | See also: Recent months at Narrabri
Date/Time
EST
Temp
°C
App
Temp
°C
Dew
Point
°C
Rel
Hum
%
Delta-T
°C
Wind Press
QNH
hPa
Press
MSL
hPa
Rain since
9am
mm
Dir  Spd
km/h
Gust
km/h
Spd
kts
Gust
kts
09/06:00pm 16.3 14.4 6.7 53 4.8 SSE 6 11 3 6 1023.3 1023.1 0.0
09/05:30pm 17.2 15.7 7.0 51 5.1 S 4 7 2 4 1023.1 1022.9 0.0
09/05:00pm 21.0 19.8 6.5 39 7.4 WNW 2 7 1 4 1022.8 1022.6 0.0
09/04:30pm 22.1 20.7 5.5 34 8.4 S 2 6 1 3 1022.5 1022.3 0.0
09/04:00pm 22.5 20.3 6.3 35 8.3 WNW 7 11 4 6 1022.3 1022.1 0.0
09/03:30pm 22.3 20.1 6.1 35 8.3 W 7 13 4 7 1022.3 1022.1 0.0
09/03:00pm 21.8 19.6 6.1 36 8.0 SSW 7 11 4 6 1022.3 1022.1 0.0
09/02:30pm 21.9 19.7 6.2 36 8.0 NW 7 11 4 6 1022.3 1022.1 0.0
09/02:00pm 21.5 18.9 6.2 37 7.8 NW 9 13 5 7 1022.5 1022.3 0.0
09/01:30pm 20.9 18.8 6.8 40 7.2 SW 7 11 4 6 1022.7 1022.5 0.0
09/01:00pm 20.9 18.8 6.8 40 7.2 W 7 11 4 6 1022.9 1022.7 0.0
09/12:30pm 19.5 16.5 5.9 41 6.8 SSW 11 17 6 9 1023.5 1023.3 0.0
09/12:00pm 19.8 16.5 7.9 46 6.2 SSE 15 20 8 11 1023.8 1023.6 0.0
09/11:30am 18.7 14.9 7.5 48 5.8 SSE 17 26 9 14 1024.2 1024.0 0.0
09/11:00am 17.7 13.3 7.2 50 5.3 SSE 20 28 11 15 1024.5 1024.3 0.0
09/10:30am 16.5 12.2 7.2 54 4.7 SSE 19 28 10 15 1024.6 1024.4 0.0
09/10:00am 15.3 10.4 7.1 58 4.1 SSE 22 30 12 16 1024.7 1024.5 0.0
09/09:30am 14.1 10.0 7.9 66 3.1 S 19 28 10 15 1024.7 1024.5 0.0
09/09:00am 12.4 8.7 7.9 74 2.2 S 17 22 9 12 1024.7 1024.5 0.0
09/08:30am 10.7 7.2 7.4 80 1.6 SSE 15 22 8 12 1024.7 1024.5 0.0
09/08:00am 9.3 5.7 6.6 83 1.3 SSE 15 20 8 11 1024.5 1024.3 0.0
09/07:30am 8.2 4.5 6.3 88 0.9 SSE 15 19 8 10 1024.3 1024.1 0.0
09/07:00am 7.2 3.8 5.8 91 0.6 SSE 13 19 7 10 1024.1 1023.9 0.0
09/06:30am 7.1 2.8 5.4 89 0.8 SSE 17 20 9 11 1023.8 1023.6 0.0
09/06:00am 7.3 3.5 5.8 90 0.7 SSE 15 19 8 10 1023.7 1023.5 0.0
09/05:30am 7.3 3.1 5.8 90 0.7 SSE 17 20 9 11 1023.3 1023.1 0.0
09/05:00am 7.4 3.6 5.9 90 0.7 SSE 15 17 8 9 1023.0 1022.8 0.0
09/04:30am 7.3 3.9 5.8 90 0.7 SSE 13 15 7 8 1022.9 1022.7 0.0
09/04:00am 6.8 3.7 5.6 92 0.5 SSE 11 13 6 7 1022.9 1022.7 0.0
09/03:30am 7.2 4.1 5.7 90 0.7 SSE 11 13 6 7 1022.9 1022.7 0.0
09/03:00am 6.7 4.0 5.5 92 0.5 SSE 9 13 5 7 1022.9 1022.7 0.0
09/02:30am 7.7 5.1 6.0 89 0.8 S 9 11 5 6 1023.1 1022.9 0.0
09/02:00am 8.3 5.7 5.9 85 1.1 SSE 9 13 5 7 1023.2 1023.0 0.0
09/01:30am 7.6 5.0 5.9 89 0.8 SSE 9 11 5 6 1023.2 1023.0 0.0
09/01:00am 7.8 5.7 5.9 88 0.9 SSE 6 7 3 4 1023.3 1023.1 0.0
09/12:30am 7.5 4.9 6.0 90 0.7 S 9 11 5 6 1023.3 1023.1 0.0
09/12:00am 7.8 5.8 6.3 90 0.7 SSE 6 7 3 4 1023.5 1023.3 0.0
 
Date/Time
EST
Temp
°C
App
Temp
°C
Dew
Point
°C
Rel
Hum
%
Delta-T
°C
Wind Press
QNH
hPa
Press
MSL
hPa
Rain since
9am
mm
Dir  Spd
km/h
Gust
km/h
Spd
kts
Gust
kts
08/11:30pm 8.7 6.6 6.0 83 1.2 SSE 6 7 3 4 1023.6 1023.4 0.0
08/11:00pm 9.1 7.8 6.0 81 1.4 S 2 7 1 4 1023.8 1023.6 0.0
08/10:30pm 10.3 8.1 6.3 76 1.9 SSE 7 9 4 5 1023.9 1023.7 0.0
08/10:00pm 11.0 8.8 6.4 73 2.2 SSE 7 11 4 6 1024.1 1023.9 0.0
08/09:30pm 12.3 8.3 6.6 68 2.7 S 17 20 9 11 1024.1 1023.9 0.0
08/09:00pm 12.5 8.5 6.5 67 2.9 S 17 24 9 13 1023.7 1023.5 0.0
08/08:30pm 11.4 8.2 6.7 73 2.3 S 13 17 7 9 1023.6 1023.4 0.0
08/08:00pm 12.1 9.5 5.9 66 2.9 SSW 9 13 5 7 1023.2 1023.0 0.0
08/07:30pm 13.8 10.5 6.2 60 3.7 SW 13 15 7 8 1022.9 1022.7 0.0
08/07:00pm 13.6 10.3 6.5 62 3.4 SW 13 17 7 9 1022.5 1022.3 0.0
08/06:30pm 14.6 10.1 5.9 56 4.2 SW 19 20 10 11 1022.0 1021.8 0.0
08/06:00pm 14.6 11.2 5.9 56 4.2 WSW 13 17 7 9 1021.5 1021.2 0.0
08/05:30pm 15.7 11.9 5.6 51 4.9 WSW 15 19 8 10 1021.2 1020.9 0.0
08/05:00pm 17.4 13.5 5.4 45 5.8 WSW 15 20 8 11 1021.0 1020.7 0.0
08/04:30pm 18.4 15.2 5.3 42 6.4 NW 11 15 6 8 1020.9 1020.6 0.0
08/04:00pm 18.6 15.0 4.8 40 6.7 WNW 13 17 7 9 1021.0 1020.7 0.0
08/03:30pm 18.7 14.4 5.2 41 6.6 W 17 20 9 11 1021.1 1020.8 0.0
08/03:00pm 18.3 13.9 4.8 41 6.5 W 17 24 9 13 1021.2 1020.9 0.0
08/02:30pm 17.8 13.0 4.4 41 6.4 WSW 19 30 10 16 1021.3 1021.0 0.0
08/02:00pm 17.3 13.2 4.6 43 6.1 W 15 24 8 13 1021.6 1021.3 0.0
08/01:30pm 17.3 13.5 5.9 47 5.6 W 15 24 8 13 1022.0 1021.8 0.0
08/01:00pm 16.5 13.9 4.2 44 5.8 ENE 7 11 4 6 1022.5 1022.3 0.0
08/12:30pm 15.3 12.7 4.4 48 5.1 SSW 7 15 4 8 1022.8 1022.6 0.0
08/12:00pm 14.6 11.9 3.7 48 5.0 S 7 17 4 9 1023.5 1023.3 0.0
08/11:30am 14.1 11.1 4.1 51 4.6 SSW 9 19 5 10 1023.9 1023.7 0.0
08/11:00am 13.6 10.2 4.2 53 4.3 SW 11 20 6 11 1024.5 1024.3 0.0
08/10:30am 13.4 10.4 4.0 53 4.3 SE 9 19 5 10 1024.6 1024.4 0.0
08/10:00am 12.2 8.7 3.4 55 3.9 SSE 11 19 6 10 1024.7 1024.5 0.0
08/09:30am 11.7 7.5 3.7 58 3.6 S 15 20 8 11 1025.0 1024.8 0.0
08/09:00am 11.0 6.3 3.3 59 3.4 S 17 24 9 13 1025.1 1024.9 0.0
08/08:30am 10.1 5.7 2.5 59 3.3 SSE 15 20 8 11 1025.3 1025.2 0.0
08/08:00am 8.8 5.4 1.7 61 3.0 S 9 13 5 7 1025.3 1025.2 0.0
08/07:30am 6.9 4.0 1.4 68 2.2 S 6 7 3 4 1024.9 1024.7 0.0
08/07:00am 6.6 3.0 0.7 66 2.3 SE 9 13 5 7 1024.7 1024.5 0.0
08/06:30am 6.1 2.1 0.4 67 2.2 SE 11 13 6 7 1024.4 1024.2 0.0
08/06:00am 6.4 2.8 0.5 66 2.3 SE 9 11 5 6 1024.2 1024.0 0.0
08/05:30am 7.4 2.7 0.6 62 2.7 SSE 15 20 8 11 1024.1 1023.9 0.0
08/05:00am 7.4 3.0 0.6 62 2.7 SSE 13 19 7 10 1024.0 1023.8 0.0
08/04:30am 7.4 3.0 0.2 60 2.9 SE 13 19 7 10 1024.0 1023.8 0.0
08/04:00am 7.1 2.7 0.3 62 2.7 SE 13 17 7 9 1023.9 1023.7 0.0
08/03:30am 7.2 2.8 0.2 61 2.8 SE 13 17 7 9 1023.8 1023.6 0.0
08/03:00am 7.3 2.5 0.5 62 2.7 S 15 19 8 10 1023.8 1023.6 0.0
08/02:30am 8.0 2.8 0.0 57 3.2 S 17 24 9 13 1023.9 1023.7 0.0
08/02:00am 7.1 2.3 0.1 61 2.8 S 15 20 8 11 1024.0 1023.8 0.0
08/01:30am 5.9 2.2 -0.2 65 2.4 SSE 9 13 5 7 1024.1 1023.9 0.0
08/01:00am 6.2 2.5 -0.1 64 2.4 S 9 13 5 7 1024.0 1023.8 0.0
08/12:30am 6.5 2.4 -0.5 61 2.7 SSE 11 15 6 8 1024.0 1023.8 0.0
08/12:00am 6.6 2.6 0.3 64 2.5 S 11 13 6 7 1023.8 1023.6 0.0
 
Date/Time
EST
Temp
°C
App
Temp
°C
Dew
Point
°C
Rel
Hum
%
Delta-T
°C
Wind Press
QNH
hPa
Press
MSL
hPa
Rain since
9am
mm
Dir  Spd
km/h
Gust
km/h
Spd
kts
Gust
kts
07/11:30pm 8.0 3.4 -0.7 54 3.4 SSW 13 17 7 9 1023.7 1023.5 0.0
07/11:00pm 8.4 3.8 -0.9 52 3.6 SSW 13 20 7 11 1024.0 1023.8 0.0
07/10:30pm 8.4 3.1 -0.9 52 3.6 SSW 17 22 9 12 1023.9 1023.7 0.0
07/10:00pm 8.5 2.9 -0.3 54 3.5 SW 19 22 10 12 1023.9 1023.7 0.0
07/09:30pm 9.5 3.6 -0.9 48 4.1 SSW 20 26 11 14 1024.0 1023.8 0.0
07/09:00pm 8.5 3.2 -0.8 52 3.6 SSW 17 24 9 13 1023.5 1023.3 0.0
07/08:30pm 8.9 4.3 -1.2 49 4.0 SSW 13 15 7 8 1023.4 1023.2 0.0
07/08:00pm 8.3 4.6 -0.2 55 3.4 S 9 13 5 7 1023.5 1023.3 0.0
07/07:30pm 9.2 5.4 -0.4 51 3.8 S 9 11 5 6 1023.1 1022.9 0.0
07/07:00pm 11.2 6.2 -1.2 42 4.9 SW 15 20 8 11 1022.6 1022.4 0.0
07/06:30pm 11.8 6.0 -1.7 39 5.4 SW 19 24 10 13 1022.0 1021.8 0.0
07/06:00pm 12.0 6.6 -1.2 40 5.3 SW 17 20 9 11 1021.6 1021.3 0.0
07/05:30pm 12.8 7.0 -1.5 37 5.8 SW 19 28 10 15 1021.1 1020.8 0.0
07/05:00pm 14.4 6.4 -2.5 31 6.8 SW 30 37 16 20 1020.6 1020.4 0.0
07/04:30pm 15.6 7.8 -1.0 32 7.0 SW 30 39 16 21 1020.3 1020.1 0.0
07/04:00pm 16.4 8.1 -1.7 29 7.5 WSW 32 44 17 24 1020.0 1019.8 0.0
07/03:30pm 16.9 11.2 4.9 45 5.8 SW 24 33 13 18 1019.7 1019.5 0.0
07/03:00pm 15.5 11.2 6.8 56 4.3 WSW 19 26 10 14 1019.8 1019.6 0.0
07/02:30pm 16.6 9.8 7.0 53 4.8 SW 32 41 17 22 1019.8 1019.6 0.0
07/02:00pm 16.7 10.1 7.9 56 4.5 SW 32 41 17 22 1019.4 1019.2 0.0
07/01:30pm 17.9 12.4 7.6 51 5.3 WSW 26 35 14 19 1019.3 1019.1 0.0
07/01:00pm 18.4 13.8 8.1 51 5.3 WSW 22 33 12 18 1019.3 1019.1 0.0
07/12:30pm 18.1 13.0 7.8 51 5.3 WSW 24 35 13 19 1019.6 1019.4 0.0
07/12:00pm 17.3 14.3 7.9 54 4.8 WSW 13 24 7 13 1019.9 1019.7 0.0
07/11:30am 17.4 14.0 9.1 58 4.4 W 17 28 9 15 1020.4 1020.2 0.0
07/11:00am 16.4 14.2 9.3 63 3.7 W 11 17 6 9 1020.4 1020.2 0.0
07/10:30am 15.7 13.4 8.9 64 3.5 SW 11 17 6 9 1020.7 1020.5 0.0
07/10:00am 14.6 13.2 9.6 72 2.6 S 7 11 4 6 1020.9 1020.6 0.0
07/09:30am 12.7 10.5 9.5 81 1.6 WSW 11 15 6 8 1021.2 1020.9 0.0
07/09:00am 12.0 10.9 9.9 87 1.1 SW 6 9 3 5 1021.0 1020.7 0.0
07/08:30am 10.0 8.5 9.2 95 0.4 SW 7 11 4 6 1020.7 1020.5 0.0
07/08:00am 8.7 7.2 8.6 99 0.0 W 6 9 3 5 1020.1 1019.9 0.0
07/07:30am 7.3 6.7 7.3 100 0.0 CALM 0 4 0 2 1019.5 1019.3 0.0
07/07:00am 6.1 5.1 5.7 97 0.2 CALM 0 0 0 0 1019.4 1019.2 0.0
07/06:30am 6.6 5.8 6.5 99 0.0 CALM 0 0 0 0 1019.0 1018.8 0.0
07/06:00am 7.1 5.1 7.0 99 0.0 E 7 11 4 6 1018.7 1018.5 0.0
07/05:30am 6.7 4.2 6.7 100 0.0 ENE 9 9 5 5 1018.7 1018.5 0.0
07/05:00am 6.5 5.7 6.4 99 0.0 CALM 0 0 0 0 1018.7 1018.5 0.0
07/04:30am 7.0 6.3 6.9 99 0.0 CALM 0 0 0 0 1018.5 1018.3 0.0
07/04:00am 7.0 6.2 6.7 98 0.1 CALM 0 0 0 0 1018.4 1018.2 0.0
07/03:30am 7.3 6.6 6.9 97 0.2 CALM 0 0 0 0 1018.4 1018.2 0.0
07/03:00am 7.9 6.8 7.1 95 0.4 SE 2 7 1 4 1018.5 1018.3 0.0
07/02:30am 8.5 7.9 7.3 92 0.6 CALM 0 0 0 0 1018.5 1018.3 0.0
07/02:00am 9.6 7.4 7.9 89 0.8 E 9 11 5 6 1018.4 1018.2 0.0
07/01:30am 9.8 7.6 7.9 88 0.9 E 9 11 5 6 1018.3 1018.1 0.0
07/01:00am 9.5 7.4 8.1 91 0.7 E 9 11 5 6 1018.4 1018.2 0.0
07/12:30am 9.2 8.7 8.0 92 0.6 CALM 0 0 0 0 1018.4 1018.2 0.0
07/12:00am 10.4 9.3 8.3 87 1.0 SSW 4 7 2 4 1018.4 1018.2 0.0
 
Date/Time
EST
Temp
°C
App
Temp
°C
Dew
Point
°C
Rel
Hum
%
Delta-T
°C
Wind Press
QNH
hPa
Press
MSL
hPa
Rain since
9am
mm
Dir  Spd
km/h
Gust
km/h
Spd
kts
Gust
kts
06/11:30pm 10.4 10.1 8.5 88 0.9 CALM 0 0 0 0 1018.3 1018.1 0.0
06/11:00pm 11.6 10.1 9.0 84 1.3 ENE 7 9 4 5 1018.3 1018.1 0.0
06/10:30pm 12.3 9.9 8.8 79 1.8 ENE 11 13 6 7 1018.3 1018.1 0.0
06/10:00pm 13.1 10.3 8.6 74 2.3 ENE 13 13 7 7 1018.5 1018.3 0.0
06/09:30pm 13.4 11.0 8.5 72 2.5 ENE 11 13 6 7 1018.5 1018.3 0.0
06/09:00pm 13.8 11.3 8.4 70 2.7 ENE 11 13 6 7 1018.4 1018.2 0.0
06/08:30pm 14.4 12.8 8.1 66 3.2 NE 6 11 3 6 1018.4 1018.2 0.0
06/08:00pm 14.6 12.2 8.5 67 3.1 ENE 11 15 6 8 1018.3 1018.1 0.0
06/07:30pm 13.8 11.7 9.6 76 2.2 NNE 11 13 6 7 1018.2 1018.0 0.0
06/07:00pm 13.6 11.0 9.5 76 2.1 N 13 15 7 8 1018.0 1017.8 0.0
06/06:30pm 14.8 12.6 9.2 69 2.9 N 11 13 6 7 1017.7 1017.4 0.0

Other formats

Comma delimited format used in spreadsheet applications
http://www.bom.gov.au/fwo/IDN60801/IDN60801.95734.axf

JavaScript Object Notation format (JSON) in row-major order
http://www.bom.gov.au/fwo/IDN60801/IDN60801.95734.json

Data quality

Most of these data are generated automatically and are frequently updated. Quality checks on data are not normally performed. It is possible for incorrect values to appear. Refer to information at About Latest Weather Observations and please check the disclaimer before using these data.